createdAt,value
2022-11-27T00:01:36.982Z,93.69
2022-11-27T00:04:05.911Z,93.22
2022-11-27T00:06:35.682Z,93.05
2022-11-27T00:09:08.817Z,93.02
2022-11-27T00:11:39.407Z,93.45
2022-11-27T00:14:08.781Z,93.49
2022-11-27T00:16:37.183Z,93.47
2022-11-27T00:19:05.935Z,93.55
2022-11-27T00:21:36.960Z,93.29
2022-11-27T00:24:11.072Z,93.40
2022-11-27T00:26:39.432Z,93.53
2022-11-27T00:29:08.896Z,93.32
2022-11-27T00:31:39.836Z,93.45
2022-11-27T00:34:09.953Z,93.34
2022-11-27T00:36:39.816Z,93.83
2022-11-27T00:39:12.143Z,93.99
2022-11-27T00:41:40.874Z,93.72
2022-11-27T00:44:09.183Z,93.80
2022-11-27T00:46:37.657Z,93.58
2022-11-27T00:49:07.424Z,93.88
2022-11-27T00:51:36.664Z,94.06
2022-11-27T00:54:05.555Z,93.49
2022-11-27T00:56:38.378Z,93.46
2022-11-27T00:59:08.039Z,93.19
2022-11-27T01:01:40.790Z,93.27
2022-11-27T01:04:13.196Z,93.39
2022-11-27T01:06:42.626Z,93.89
2022-11-27T01:09:12.432Z,94.84
2022-11-27T01:11:43.506Z,94.29
2022-11-27T01:14:16.046Z,94.43
2022-11-27T01:16:45.066Z,94.40
2022-11-27T01:19:15.304Z,94.81
2022-11-27T01:21:43.904Z,95.07
2022-11-27T01:24:14.839Z,94.45
2022-11-27T01:26:45.562Z,93.93
2022-11-27T01:29:14.445Z,94.42
2022-11-27T01:31:43.061Z,93.74
2022-11-27T01:34:17.689Z,93.89
2022-11-27T01:36:46.470Z,93.62
2022-11-27T01:39:20.893Z,93.79
2022-11-27T01:41:50.977Z,94.07
2022-11-27T01:44:55.645Z,93.38
2022-11-27T01:47:41.248Z,94.10
2022-11-27T01:50:16.255Z,94.00
2022-11-27T01:52:49.669Z,95.12
2022-11-27T01:55:27.486Z,96.63
2022-11-27T01:58:01.747Z,96.89
2022-11-27T02:00:30.711Z,97.07
2022-11-27T02:02:59.448Z,96.91
2022-11-27T02:05:29.985Z,97.40
2022-11-27T02:08:00.491Z,97.63
2022-11-27T02:10:41.543Z,97.56
2022-11-27T02:13:15.610Z,97.62
2022-11-27T02:15:51.236Z,97.82
2022-11-27T02:18:33.947Z,97.19
2022-11-27T02:21:11.188Z,97.31
2022-11-27T02:24:13.946Z,97.76
2022-11-27T02:27:20.964Z,97.74
2022-11-27T02:29:56.181Z,98.02
2022-11-27T02:32:32.013Z,98.41
2022-11-27T02:35:05.713Z,98.20
2022-11-27T02:37:38.061Z,97.84
2022-11-27T02:40:11.984Z,98.02
2022-11-27T02:42:45.978Z,98.14
2022-11-27T02:45:20.165Z,97.98
2022-11-27T02:47:50.289Z,98.61
2022-11-27T02:50:23.638Z,98.36
2022-11-27T02:52:54.916Z,98.62
2022-11-27T02:55:28.292Z,99.17
2022-11-27T02:57:58.947Z,99.86
2022-11-27T03:00:29.981Z,99.31
2022-11-27T03:03:07.319Z,98.91
2022-11-27T03:05:40.988Z,99.15
2022-11-27T03:08:15.398Z,99.23
2022-11-27T03:10:52.313Z,99.49
2022-11-27T03:13:21.052Z,100.00
2022-11-27T03:16:02.466Z,100.00
2022-11-27T03:18:40.225Z,99.85
2022-11-27T03:21:20.255Z,99.81
2022-11-27T03:23:48.577Z,100.00
2022-11-27T03:26:17.242Z,99.73
2022-11-27T03:28:47.384Z,100.00
2022-11-27T03:31:17.641Z,99.67
2022-11-27T03:33:46.349Z,100.00
2022-11-27T03:36:16.883Z,99.71
2022-11-27T03:38:47.286Z,99.78
2022-11-27T03:41:25.679Z,99.61
2022-11-27T03:44:16.894Z,99.80
2022-11-27T03:46:56.966Z,99.02
2022-11-27T03:49:35.170Z,98.68
2022-11-27T03:52:15.435Z,99.07
2022-11-27T03:54:56.818Z,99.05
2022-11-27T03:57:35.210Z,98.91
2022-11-27T04:00:08.079Z,99.48
2022-11-27T04:02:45.291Z,99.59
2022-11-27T04:05:15.036Z,99.53
2022-11-27T04:07:44.205Z,98.70
2022-11-27T04:10:13.920Z,99.00
2022-11-27T04:12:42.661Z,98.52
2022-11-27T04:15:12.606Z,98.58
2022-11-27T04:17:42.328Z,98.80
2022-11-27T04:20:14.927Z,98.70
2022-11-27T04:22:43.263Z,99.13
2022-11-27T04:25:11.554Z,98.94
2022-11-27T04:27:39.885Z,98.19
2022-11-27T04:30:09.706Z,98.42
2022-11-27T04:32:38.087Z,98.47
2022-11-27T04:35:08.932Z,98.74
2022-11-27T04:37:37.703Z,98.50
2022-11-27T04:40:07.792Z,98.48
2022-11-27T04:42:36.113Z,98.61
2022-11-27T04:45:04.974Z,98.70
2022-11-27T04:47:33.235Z,98.28
2022-11-27T04:50:01.607Z,97.90
2022-11-27T04:52:31.266Z,98.04
2022-11-27T04:55:00.388Z,98.07
2022-11-27T04:57:29.425Z,97.46
2022-11-27T04:59:57.923Z,96.71
2022-11-27T05:02:26.287Z,96.68
2022-11-27T05:04:54.722Z,96.41
2022-11-27T05:07:23.276Z,96.37
2022-11-27T05:09:53.235Z,96.19
2022-11-27T05:12:21.798Z,95.97
2022-11-27T05:14:50.143Z,95.60
2022-11-27T05:17:18.604Z,95.38
2022-11-27T05:19:46.963Z,95.63
2022-11-27T05:22:15.325Z,95.39
2022-11-27T05:24:43.570Z,95.42
2022-11-27T05:27:13.247Z,94.95
2022-11-27T05:29:41.704Z,95.02
2022-11-27T05:32:10.145Z,94.75
2022-11-27T05:34:38.607Z,94.63
2022-11-27T05:37:07.098Z,94.89
2022-11-27T05:39:35.546Z,95.10
2022-11-27T05:42:03.797Z,94.93
2022-11-27T05:44:33.691Z,95.58
2022-11-27T05:47:02.053Z,95.86
2022-11-27T05:49:30.361Z,96.40
2022-11-27T05:51:58.696Z,96.30
2022-11-27T05:54:27.303Z,96.73
2022-11-27T05:56:55.758Z,96.70
2022-11-27T05:59:24.232Z,97.31
2022-11-27T06:01:53.933Z,96.95
2022-11-27T06:04:22.345Z,97.04
2022-11-27T06:06:51.004Z,97.80
2022-11-27T06:09:19.305Z,97.79
2022-11-27T06:11:47.672Z,98.07
2022-11-27T06:14:16.761Z,98.30
2022-11-27T06:16:45.197Z,98.89
2022-11-27T06:19:15.044Z,99.74
2022-11-27T06:21:46.471Z,100.00
2022-11-27T06:24:15.382Z,99.84
2022-11-27T06:26:43.999Z,99.79
2022-11-27T06:29:12.444Z,99.85
2022-11-27T06:31:41.042Z,99.51
2022-11-27T06:34:09.509Z,98.84
2022-11-27T06:36:41.661Z,99.45
2022-11-27T06:39:12.232Z,99.81
2022-11-27T06:41:40.873Z,99.84
2022-11-27T06:44:10.434Z,99.78
2022-11-27T06:46:38.960Z,99.87
2022-11-27T06:49:07.256Z,99.38
2022-11-27T06:51:36.280Z,99.85
2022-11-27T06:54:06.519Z,100.00
2022-11-27T06:56:35.390Z,100.00
2022-11-27T06:59:04.220Z,97.48
2022-11-27T07:01:34.552Z,96.29
2022-11-27T07:04:03.304Z,96.59
2022-11-27T07:06:31.950Z,97.54
2022-11-27T07:09:00.732Z,98.26
2022-11-27T07:11:31.997Z,98.81
2022-11-27T07:14:02.194Z,99.28
2022-11-27T07:16:32.917Z,100.00
2022-11-27T07:19:03.792Z,100.00
2022-11-27T07:21:32.721Z,100.00
2022-11-27T07:24:02.380Z,100.00
2022-11-27T07:26:32.690Z,100.00
2022-11-27T07:29:01.858Z,100.00
2022-11-27T07:31:31.659Z,100.00
2022-11-27T07:34:00.710Z,100.00
2022-11-27T07:36:31.136Z,100.00
2022-11-27T07:38:59.847Z,100.00
2022-11-27T07:41:33.767Z,100.00
2022-11-27T07:44:05.170Z,100.00
2022-11-27T07:46:33.936Z,100.00
2022-11-27T07:49:03.837Z,100.00
2022-11-27T07:51:32.708Z,100.00
2022-11-27T07:54:01.783Z,100.00
2022-11-27T07:56:30.622Z,100.00
2022-11-27T07:58:59.796Z,100.00
2022-11-27T08:01:29.837Z,100.00
2022-11-27T08:03:58.560Z,100.00
2022-11-27T08:06:28.619Z,100.00
2022-11-27T08:08:57.317Z,100.00
2022-11-27T08:11:27.542Z,100.00
2022-11-27T08:13:59.132Z,100.00
2022-11-27T08:16:29.392Z,100.00
2022-11-27T08:18:58.339Z,100.00
2022-11-27T08:21:27.772Z,99.26
2022-11-27T08:23:57.260Z,98.89
2022-11-27T08:26:27.548Z,98.79
2022-11-27T08:28:56.871Z,99.08
2022-11-27T08:31:26.120Z,98.85
2022-11-27T08:33:56.219Z,98.80
2022-11-27T08:36:27.934Z,98.93
2022-11-27T08:38:57.275Z,99.39
2022-11-27T08:41:26.149Z,99.01
2022-11-27T08:43:55.133Z,99.01
2022-11-27T08:46:23.874Z,99.21
2022-11-27T08:48:52.707Z,99.07
2022-11-27T08:51:22.785Z,99.62
2022-11-27T08:53:51.621Z,99.25
2022-11-27T08:56:22.579Z,100.00
2022-11-27T08:58:51.666Z,100.00
2022-11-27T09:01:22.647Z,100.00
2022-11-27T09:03:52.777Z,100.00
2022-11-27T09:06:24.604Z,100.00
2022-11-27T09:08:53.461Z,100.00
2022-11-27T09:11:22.799Z,100.00
2022-11-27T09:13:51.713Z,100.00
2022-11-27T09:16:22.184Z,100.00
2022-11-27T09:18:52.703Z,100.00
2022-11-27T09:21:24.435Z,100.00
2022-11-27T09:23:55.283Z,100.00
2022-11-27T09:26:25.534Z,100.00
2022-11-27T09:28:55.028Z,100.00
2022-11-27T09:31:24.351Z,100.00
2022-11-27T09:33:53.017Z,100.00
2022-11-27T09:36:25.646Z,100.00
2022-11-27T09:38:54.745Z,100.00
2022-11-27T09:41:42.161Z,98.56
2022-11-27T09:44:26.623Z,98.10
2022-11-27T09:46:56.556Z,97.75
2022-11-27T09:49:30.483Z,97.49
2022-11-27T09:52:04.863Z,96.93
2022-11-27T09:54:37.350Z,96.13
2022-11-27T09:57:07.471Z,96.14
2022-11-27T09:59:40.595Z,96.99
2022-11-27T10:02:18.106Z,97.98
2022-11-27T10:05:12.290Z,97.55
2022-11-27T10:07:43.022Z,96.84
2022-11-27T10:10:27.503Z,97.73
2022-11-27T10:13:04.004Z,96.50
2022-11-27T10:15:38.697Z,95.26
2022-11-27T10:18:10.508Z,94.51
2022-11-27T10:20:44.896Z,93.07
2022-11-27T10:23:20.028Z,92.38
2022-11-27T10:25:50.654Z,90.49
2022-11-27T10:28:27.830Z,89.42
2022-11-27T10:30:59.418Z,89.00
2022-11-27T10:33:34.861Z,89.95
2022-11-27T10:36:03.631Z,90.49
2022-11-27T10:38:37.418Z,90.05
2022-11-27T10:41:18.593Z,91.08
2022-11-27T10:44:01.949Z,90.25
2022-11-27T10:46:33.438Z,90.65
2022-11-27T10:49:02.194Z,89.76
2022-11-27T10:51:33.656Z,89.15
2022-11-27T10:54:06.337Z,89.24
2022-11-27T10:57:05.654Z,90.66
2022-11-27T10:59:39.223Z,90.32
2022-11-27T11:02:24.193Z,91.12
2022-11-27T11:05:16.146Z,89.38
2022-11-27T11:07:42.052Z,88.37
2022-11-27T11:10:27.092Z,84.86
2022-11-27T11:13:15.912Z,84.71
2022-11-27T11:15:53.786Z,82.67
2022-11-27T11:18:24.303Z,82.60
2022-11-27T11:20:55.190Z,82.80
2022-11-27T11:23:35.551Z,80.72
2022-11-27T11:26:13.895Z,78.68
2022-11-27T11:28:48.361Z,78.84
2022-11-27T11:31:19.530Z,78.79
2022-11-27T11:33:53.751Z,78.82
2022-11-27T11:36:22.829Z,78.84
2022-11-27T11:38:51.946Z,78.60
2022-11-27T11:41:24.158Z,78.41
2022-11-27T11:44:02.068Z,77.56
2022-11-27T11:46:32.942Z,77.16
2022-11-27T11:49:05.870Z,77.11
2022-11-27T11:51:51.972Z,77.16
2022-11-27T11:54:32.604Z,76.75
2022-11-27T11:57:04.691Z,76.36
2022-11-27T11:59:42.125Z,76.29
2022-11-27T12:02:38.947Z,74.33
2022-11-27T12:05:20.530Z,72.42
2022-11-27T12:08:13.922Z,71.89
2022-11-27T12:10:52.656Z,72.07
2022-11-27T12:13:33.459Z,71.06
2022-11-27T12:16:08.022Z,72.00
2022-11-27T12:18:45.402Z,71.84
2022-11-27T12:21:16.272Z,71.62
2022-11-27T12:23:55.418Z,70.82
2022-11-27T12:26:30.740Z,70.70
2022-11-27T12:29:29.377Z,70.25
2022-11-27T12:32:15.832Z,68.34
2022-11-27T12:34:55.782Z,67.60
2022-11-27T12:37:33.051Z,66.88
2022-11-27T12:40:19.398Z,66.80
2022-11-27T12:42:51.647Z,66.12
2022-11-27T12:45:23.929Z,66.41
2022-11-27T12:47:58.220Z,65.25
2022-11-27T12:50:35.199Z,63.76
2022-11-27T12:53:11.593Z,62.92
2022-11-27T12:55:41.755Z,62.88
2022-11-27T12:58:17.554Z,63.70
2022-11-27T13:00:49.167Z,63.10
2022-11-27T13:03:22.875Z,62.99
2022-11-27T13:05:54.249Z,63.68
2022-11-27T13:08:27.611Z,63.30
2022-11-27T13:11:00.430Z,62.19
2022-11-27T13:13:34.244Z,62.15
2022-11-27T13:16:06.767Z,62.60
2022-11-27T13:18:38.053Z,63.12
2022-11-27T13:21:11.007Z,63.59
2022-11-27T13:23:39.814Z,62.09
2022-11-27T13:26:12.550Z,63.18
2022-11-27T13:28:44.683Z,63.40
2022-11-27T13:31:20.390Z,62.92
2022-11-27T13:33:49.701Z,63.82
2022-11-27T13:36:23.697Z,63.37
2022-11-27T13:38:57.780Z,63.53
2022-11-27T13:41:32.737Z,63.59
2022-11-27T13:44:01.266Z,63.38
2022-11-27T13:46:33.533Z,62.57
2022-11-27T13:49:03.855Z,64.39
2022-11-27T13:51:34.659Z,63.96
2022-11-27T13:54:11.803Z,63.36
2022-11-27T13:56:40.811Z,63.71
2022-11-27T14:02:13.746Z,64.21
2022-11-27T14:04:55.860Z,64.40
2022-11-27T14:07:25.666Z,64.03
2022-11-27T14:09:57.530Z,64.29
2022-11-27T14:18:40.607Z,64.59
2022-11-27T14:21:09.509Z,64.57
2022-11-27T14:23:50.897Z,65.21
2022-11-27T14:26:22.865Z,65.22
2022-11-27T14:28:53.146Z,65.35
2022-11-27T14:31:33.277Z,66.98
2022-11-27T14:34:24.337Z,66.21
2022-11-27T14:36:53.680Z,65.48
2022-11-27T14:39:28.519Z,65.50
2022-11-27T14:42:01.642Z,65.33
2022-11-27T14:44:30.967Z,66.07
2022-11-27T14:47:01.914Z,66.03
2022-11-27T14:49:32.981Z,66.14
2022-11-27T14:52:04.899Z,66.65
2022-11-27T14:54:35.472Z,66.82
2022-11-27T14:57:05.199Z,66.75
2022-11-27T14:59:34.014Z,67.12
2022-11-27T15:02:05.190Z,68.25
2022-11-27T15:04:37.765Z,67.91
2022-11-27T15:07:07.944Z,68.66
2022-11-27T15:09:37.470Z,68.34
2022-11-27T15:12:14.718Z,68.09
2022-11-27T15:14:47.548Z,67.92
2022-11-27T15:17:18.716Z,68.19
2022-11-27T15:19:49.251Z,68.86
2022-11-27T15:22:18.810Z,68.24
2022-11-27T15:24:47.580Z,68.09
2022-11-27T15:27:20.622Z,67.83
2022-11-27T15:30:13.742Z,68.44
2022-11-27T15:32:51.400Z,68.84
2022-11-27T15:35:32.540Z,68.99
2022-11-27T15:38:08.809Z,68.81
2022-11-27T15:40:38.934Z,68.03
2022-11-27T15:43:11.436Z,67.81
2022-11-27T15:45:40.692Z,68.23
2022-11-27T15:48:16.396Z,67.65
2022-11-27T15:50:51.481Z,67.35
2022-11-27T15:53:20.555Z,66.63
2022-11-27T15:55:49.270Z,66.22
2022-11-27T15:58:17.982Z,65.63
2022-11-27T16:00:46.681Z,65.65
2022-11-27T16:03:15.617Z,65.52
2022-11-27T16:05:45.833Z,65.04
2022-11-27T16:08:14.624Z,65.22
2022-11-27T16:10:44.336Z,64.48
2022-11-27T16:13:13.110Z,64.93
2022-11-27T16:15:41.692Z,65.47
2022-11-27T16:18:11.907Z,65.79
2022-11-27T16:20:40.535Z,65.81
2022-11-27T16:23:10.497Z,65.72
2022-11-27T16:25:39.761Z,65.74
2022-11-27T16:28:10.682Z,66.19
2022-11-27T16:30:39.309Z,67.60
2022-11-27T16:33:08.225Z,66.79
2022-11-27T16:35:37.936Z,66.52
2022-11-27T16:38:06.503Z,66.96
2022-11-27T16:40:37.177Z,67.34
2022-11-27T16:43:05.999Z,68.14
2022-11-27T16:45:37.443Z,68.38
2022-11-27T16:48:06.732Z,68.55
2022-11-27T16:50:35.893Z,68.59
2022-11-27T16:53:05.091Z,69.05
2022-11-27T16:55:36.330Z,69.30
2022-11-27T16:58:05.123Z,69.37
2022-11-27T17:00:33.786Z,69.22
2022-11-27T17:03:02.952Z,69.08
2022-11-27T17:05:31.536Z,69.35
2022-11-27T17:08:00.431Z,69.09
2022-11-27T17:10:29.070Z,69.01
2022-11-27T17:12:59.302Z,68.95
2022-11-27T17:15:28.061Z,69.16
2022-11-27T17:17:58.734Z,69.08
2022-11-27T17:20:27.654Z,69.28
2022-11-27T17:22:57.527Z,69.52
2022-11-27T17:25:27.789Z,69.11
2022-11-27T17:27:58.582Z,68.49
2022-11-27T17:30:27.330Z,68.02
2022-11-27T17:32:58.152Z,67.75
2022-11-27T17:35:27.331Z,68.18
2022-11-27T17:37:56.840Z,67.86
2022-11-27T17:40:25.862Z,67.67
2022-11-27T17:42:54.825Z,67.06
2022-11-27T17:45:25.325Z,67.40
2022-11-27T17:47:54.074Z,67.16
2022-11-27T17:50:25.740Z,66.96
2022-11-27T17:52:55.502Z,67.35
2022-11-27T17:55:26.193Z,67.26
2022-11-27T17:57:54.942Z,67.59
2022-11-27T18:00:26.461Z,67.54
2022-11-27T18:02:55.577Z,66.92
2022-11-27T18:05:24.863Z,66.96
2022-11-27T18:07:53.912Z,66.25
2022-11-27T18:10:23.034Z,65.88
2022-11-27T18:12:52.072Z,66.62
2022-11-27T18:15:21.401Z,66.79
2022-11-27T18:17:51.373Z,66.50
2022-11-27T18:20:20.524Z,65.96
2022-11-27T18:22:49.157Z,66.56
2022-11-27T18:25:18.031Z,65.46
2022-11-27T18:27:46.910Z,65.93
2022-11-27T18:30:16.145Z,66.32
2022-11-27T18:32:46.745Z,66.15
2022-11-27T18:35:16.922Z,65.30
2022-11-27T18:37:45.799Z,65.72
2022-11-27T18:40:14.974Z,65.59
2022-11-27T18:42:43.790Z,65.36
2022-11-27T18:45:31.825Z,65.60
2022-11-27T18:48:02.041Z,65.75
2022-11-27T18:50:32.276Z,66.00
2022-11-27T18:53:01.302Z,66.44
2022-11-27T18:55:35.784Z,66.92
2022-11-27T18:58:04.685Z,66.66
2022-11-27T19:00:33.561Z,67.03
2022-11-27T19:03:02.396Z,67.94
2022-11-27T19:05:32.696Z,68.17
2022-11-27T19:08:04.296Z,68.41
2022-11-27T19:10:34.433Z,68.55
2022-11-27T19:13:03.420Z,68.53
2022-11-27T19:15:32.416Z,68.59
2022-11-27T19:18:01.663Z,68.54
2022-11-27T19:20:33.024Z,68.84
2022-11-27T19:23:02.417Z,69.09
2022-11-27T19:25:37.197Z,68.93
2022-11-27T19:28:06.977Z,69.03
2022-11-27T19:30:37.201Z,69.29
2022-11-27T19:33:06.326Z,69.73
2022-11-27T19:35:37.379Z,69.76
2022-11-27T19:38:07.067Z,70.13
2022-11-27T19:40:38.626Z,69.82
2022-11-27T19:43:07.465Z,69.84
2022-11-27T19:45:37.881Z,69.92
2022-11-27T19:48:07.059Z,70.28
2022-11-27T19:50:37.466Z,70.50
2022-11-27T19:53:07.187Z,70.17
2022-11-27T19:55:36.085Z,70.29
2022-11-27T19:58:05.603Z,70.15
2022-11-27T20:00:34.953Z,70.29
2022-11-27T20:03:05.984Z,70.53
2022-11-27T20:05:35.939Z,70.90
2022-11-27T20:08:05.147Z,71.18
2022-11-27T20:10:33.963Z,71.04
2022-11-27T20:13:02.850Z,70.74
2022-11-27T20:15:32.056Z,70.98
2022-11-27T20:18:01.015Z,70.84
2022-11-27T20:20:33.975Z,70.60
2022-11-27T20:23:04.650Z,70.73
2022-11-27T20:25:33.449Z,70.89
2022-11-27T20:28:02.431Z,71.02
2022-11-27T20:30:33.044Z,71.03
2022-11-27T20:33:07.312Z,71.02
2022-11-27T20:35:37.049Z,71.38
2022-11-27T20:38:07.539Z,71.37
2022-11-27T20:40:36.364Z,71.44
2022-11-27T20:43:04.959Z,71.40
2022-11-27T20:45:37.027Z,71.86
2022-11-27T20:48:06.015Z,72.18
2022-11-27T20:50:35.284Z,72.31
2022-11-27T20:53:06.819Z,72.50
2022-11-27T20:55:36.155Z,72.35
2022-11-27T20:58:04.798Z,72.66
2022-11-27T21:00:34.827Z,72.70
2022-11-27T21:03:03.608Z,72.97
2022-11-27T21:05:32.464Z,73.46
2022-11-27T21:08:01.607Z,73.42
2022-11-27T21:10:32.018Z,73.46
2022-11-27T21:13:01.301Z,73.56
2022-11-27T21:15:30.252Z,73.87
2022-11-27T21:17:59.107Z,73.87
2022-11-27T21:20:28.803Z,73.68
2022-11-27T21:22:57.935Z,73.57
2022-11-27T21:25:27.272Z,73.56
2022-11-27T21:27:58.634Z,73.63
2022-11-27T21:30:27.824Z,73.94
2022-11-27T21:32:56.879Z,74.06
2022-11-27T21:35:31.275Z,74.15
2022-11-27T21:38:01.598Z,73.95
2022-11-27T21:40:30.790Z,74.21
2022-11-27T21:43:01.037Z,73.97
2022-11-27T21:45:30.029Z,74.07
2022-11-27T21:47:58.953Z,74.36
2022-11-27T21:50:28.139Z,74.43
2022-11-27T21:52:56.842Z,74.40
2022-11-27T21:55:25.637Z,74.76
2022-11-27T21:57:54.332Z,74.61
2022-11-27T22:00:24.851Z,75.16
2022-11-27T22:02:53.723Z,75.25
2022-11-27T22:05:22.493Z,75.07
2022-11-27T22:07:51.438Z,75.05
2022-11-27T22:10:20.446Z,75.15
2022-11-27T22:12:49.485Z,75.29
2022-11-27T22:15:18.823Z,75.39
2022-11-27T22:17:49.299Z,75.50
2022-11-27T22:20:18.290Z,75.55
2022-11-27T22:22:47.127Z,75.72
2022-11-27T22:25:18.092Z,75.56
2022-11-27T22:27:46.840Z,75.43
2022-11-27T22:30:15.975Z,75.41
2022-11-27T22:32:44.789Z,75.56
2022-11-27T22:35:14.875Z,75.53
2022-11-27T22:37:45.656Z,75.75
2022-11-27T22:40:15.487Z,75.86
2022-11-27T22:42:44.156Z,76.00
2022-11-27T22:45:12.838Z,76.03
2022-11-27T22:47:41.561Z,76.42
2022-11-27T22:50:10.764Z,76.20
2022-11-27T22:52:40.885Z,76.51
2022-11-27T22:55:10.402Z,76.64
2022-11-27T22:57:39.602Z,76.54
2022-11-27T23:00:10.623Z,76.75
2022-11-27T23:02:39.712Z,76.82
2022-11-27T23:05:09.915Z,76.73
2022-11-27T23:07:40.158Z,76.26
2022-11-27T23:10:10.326Z,76.49
2022-11-27T23:12:38.942Z,76.28
2022-11-27T23:15:08.356Z,76.53
2022-11-27T23:17:37.017Z,76.20
2022-11-27T23:20:06.879Z,76.57
2022-11-27T23:22:35.504Z,76.43
2022-11-27T23:25:06.215Z,76.38
2022-11-27T23:27:35.028Z,76.50
2022-11-27T23:30:03.809Z,76.26
2022-11-27T23:32:32.648Z,76.51
2022-11-27T23:35:01.317Z,76.48
2022-11-27T23:37:29.943Z,76.78
2022-11-27T23:39:58.742Z,76.82
2022-11-27T23:42:28.942Z,76.84
2022-11-27T23:44:57.753Z,77.04
2022-11-27T23:47:26.373Z,76.86
2022-11-27T23:49:55.259Z,77.32
2022-11-27T23:52:24.511Z,77.49
2022-11-27T23:54:53.504Z,77.45
2022-11-27T23:57:22.769Z,76.44
2022-11-27T23:59:52.751Z,77.04
